UMMS/MSQ METAR and TAF weather

Enter ICAO airport designator
Station Type Date Time Source
UMMS METAR 2022/01/29 13:30 UTC NOAA

UMMS 291330Z 28003MPS 9999 BKN023 M02/M06 Q1010 NOSIG


Station Type Date Time Source
UMMS Decoded METAR 2022/01/29 13:30 UTC NOAA

Minsk, Belarus (UMMS) 53-56N 027-38E 231M
Jan 29, 2022 - 08:30 AM EST / 2022.01.29 1330 UTC
Wind: from the W (280 degrees) at 7 MPH (6 KT):0
Visibility: greater than 7 mile(s):0
Sky conditions: mostly cloudy
Temperature: 28 F (-2 C)
Windchill: 21 F (-6 C):1
Dew Point: 21 F (-6 C)
Relative Humidity: 74%
Pressure (altimeter): 29.83 in. Hg (1010 hPa)
ob: UMMS 291330Z 28003MPS 9999 BKN023 M02/M06 Q1010 NOSIG
cycle: 13

Station Type Date Time Source
UMMS TAF 2022/01/29 12:21 UTC NOAA

TAF TAF UMMS 291110Z 2912/3012 27007G12MPS 8000 BKN010
TEMPO 2912/2914 31011G16MPS 1500 -FZDZ SHSN BLSN OVC004 BKN010CB
FM291400 20006G11MPS 3000 -SN OVC004
TEMPO 2914/3012 23013G18MPS 0500 -FZDZ +SHSNRA OVC002 BKN010CB

Example: see airport list